Terminal Aerodrome Forecast
Issued by NWS

Current Version | Previous Version | Text Only | Print | Product List | Glossary On
Versions: 1 2 3 4 5 6 7 8 9 10 11 12 13 14 15 16 17
000
FTUS43 KBIS 211700
TAFJMS
TAF
KJMS 211738Z 2118/2218 33006KT P6SM SCT015 BKN025
      TEMPO 2118/2120 SCT007 BKN011
     FM212000 32005KT P6SM SCT010 SCT050
     FM212200 31004KT P6SM SCT060
     FM221100 04008KT 4SM BR VCTS BKN015 BKN050CB=

USA.gov is the U.S. government's official web portal to all federal, state and local government web resources and services.